sensor_id;sensor_type;location;lat;lon;timestamp;P1;durP1;ratioP1;P2;durP2;ratioP2
19446;SDS011;9862;49.462;11.054;2024-01-30T00:00:30;16.23;;;8.73;;
19446;SDS011;9862;49.462;11.054;2024-01-30T00:02:57;16.77;;;7.45;;
19446;SDS011;9862;49.462;11.054;2024-01-30T00:05:23;13.25;;;7.57;;
19446;SDS011;9862;49.462;11.054;2024-01-30T00:07:50;14.77;;;7.80;;
19446;SDS011;9862;49.462;11.054;2024-01-30T00:10:19;15.88;;;8.55;;
19446;SDS011;9862;49.462;11.054;2024-01-30T00:12:46;14.00;;;8.25;;
19446;SDS011;9862;49.462;11.054;2024-01-30T00:15:12;16.15;;;8.40;;
19446;SDS011;9862;49.462;11.054;2024-01-30T00:17:40;14.63;;;7.47;;
19446;SDS011;9862;49.462;11.054;2024-01-30T00:20:07;14.35;;;7.88;;
19446;SDS011;9862;49.462;11.054;2024-01-30T00:22:34;18.75;;;9.13;;
19446;SDS011;9862;49.462;11.054;2024-01-30T00:25:01;15.18;;;8.27;;
19446;SDS011;9862;49.462;11.054;2024-01-30T00:27:29;11.02;;;7.80;;
19446;SDS011;9862;49.462;11.054;2024-01-30T00:29:56;14.35;;;7.15;;
19446;SDS011;9862;49.462;11.054;2024-01-30T00:32:22;17.08;;;7.68;;
19446;SDS011;9862;49.462;11.054;2024-01-30T00:34:49;10.95;;;6.93;;
19446;SDS011;9862;49.462;11.054;2024-01-30T00:37:16;11.45;;;6.80;;
19446;SDS011;9862;49.462;11.054;2024-01-30T00:39:43;14.93;;;8.35;;
19446;SDS011;9862;49.462;11.054;2024-01-30T00:42:09;15.90;;;7.75;;
19446;SDS011;9862;49.462;11.054;2024-01-30T00:44:37;13.32;;;8.48;;
19446;SDS011;9862;49.462;11.054;2024-01-30T00:47:04;15.25;;;8.80;;
19446;SDS011;9862;49.462;11.054;2024-01-30T00:49:31;12.57;;;7.75;;
19446;SDS011;9862;49.462;11.054;2024-01-30T00:51:58;13.25;;;7.55;;
19446;SDS011;9862;49.462;11.054;2024-01-30T00:54:24;14.85;;;7.32;;
19446;SDS011;9862;49.462;11.054;2024-01-30T00:56:51;17.20;;;8.23;;
19446;SDS011;9862;49.462;11.054;2024-01-30T00:59:18;14.48;;;7.93;;
19446;SDS011;9862;49.462;11.054;2024-01-30T01:01:46;13.65;;;7.68;;
19446;SDS011;9862;49.462;11.054;2024-01-30T01:04:12;16.48;;;8.15;;
19446;SDS011;9862;49.462;11.054;2024-01-30T01:06:39;14.07;;;8.13;;
19446;SDS011;9862;49.462;11.054;2024-01-30T01:09:07;10.88;;;6.78;;
19446;SDS011;9862;49.462;11.054;2024-01-30T01:11:34;11.73;;;6.97;;
19446;SDS011;9862;49.462;11.054;2024-01-30T01:14:01;9.85;;;6.20;;
19446;SDS011;9862;49.462;11.054;2024-01-30T01:16:28;11.82;;;6.80;;
19446;SDS011;9862;49.462;11.054;2024-01-30T01:18:56;12.00;;;6.40;;
19446;SDS011;9862;49.462;11.054;2024-01-30T01:21:22;11.30;;;6.68;;
19446;SDS011;9862;49.462;11.054;2024-01-30T01:23:49;9.50;;;6.43;;
19446;SDS011;9862;49.462;11.054;2024-01-30T01:26:16;11.23;;;6.50;;
19446;SDS011;9862;49.462;11.054;2024-01-30T01:28:42;8.63;;;6.03;;
19446;SDS011;9862;49.462;11.054;2024-01-30T01:31:09;11.85;;;6.32;;
19446;SDS011;9862;49.462;11.054;2024-01-30T01:33:36;8.55;;;5.95;;
19446;SDS011;9862;49.462;11.054;2024-01-30T01:36:04;11.93;;;6.00;;
19446;SDS011;9862;49.462;11.054;2024-01-30T01:38:31;10.93;;;6.15;;
19446;SDS011;9862;49.462;11.054;2024-01-30T01:40:58;10.20;;;6.13;;
19446;SDS011;9862;49.462;11.054;2024-01-30T01:43:25;10.00;;;5.93;;
19446;SDS011;9862;49.462;11.054;2024-01-30T01:45:51;11.27;;;6.50;;
19446;SDS011;9862;49.462;11.054;2024-01-30T01:48:18;9.52;;;5.78;;
19446;SDS011;9862;49.462;11.054;2024-01-30T01:50:45;8.43;;;5.65;;
19446;SDS011;9862;49.462;11.054;2024-01-30T01:53:13;13.43;;;6.47;;
19446;SDS011;9862;49.462;11.054;2024-01-30T01:55:41;10.85;;;5.78;;
19446;SDS011;9862;49.462;11.054;2024-01-30T01:58:08;9.43;;;5.55;;
19446;SDS011;9862;49.462;11.054;2024-01-30T02:00:37;9.90;;;5.38;;
19446;SDS011;9862;49.462;11.054;2024-01-30T02:03:06;12.15;;;5.93;;
19446;SDS011;9862;49.462;11.054;2024-01-30T02:05:34;9.88;;;5.43;;
19446;SDS011;9862;49.462;11.054;2024-01-30T02:08:01;11.02;;;5.70;;
19446;SDS011;9862;49.462;11.054;2024-01-30T02:10:29;9.93;;;5.75;;
19446;SDS011;9862;49.462;11.054;2024-01-30T02:12:56;9.25;;;5.40;;
19446;SDS011;9862;49.462;11.054;2024-01-30T02:15:23;9.60;;;5.70;;
19446;SDS011;9862;49.462;11.054;2024-01-30T02:17:49;9.43;;;5.28;;
19446;SDS011;9862;49.462;11.054;2024-01-30T02:20:16;9.25;;;5.40;;
19446;SDS011;9862;49.462;11.054;2024-01-30T02:22:44;8.98;;;5.53;;
19446;SDS011;9862;49.462;11.054;2024-01-30T02:25:11;12.20;;;5.82;;
19446;SDS011;9862;49.462;11.054;2024-01-30T02:27:38;9.70;;;5.65;;
19446;SDS011;9862;49.462;11.054;2024-01-30T02:30:05;9.00;;;5.45;;
19446;SDS011;9862;49.462;11.054;2024-01-30T02:32:32;7.18;;;5.10;;
19446;SDS011;9862;49.462;11.054;2024-01-30T02:34:59;10.20;;;5.80;;
19446;SDS011;9862;49.462;11.054;2024-01-30T02:37:26;8.65;;;4.95;;
19446;SDS011;9862;49.462;11.054;2024-01-30T02:39:54;12.40;;;5.40;;
19446;SDS011;9862;49.462;11.054;2024-01-30T02:42:20;7.90;;;5.18;;
19446;SDS011;9862;49.462;11.054;2024-01-30T02:44:47;9.95;;;5.18;;
19446;SDS011;9862;49.462;11.054;2024-01-30T02:47:14;12.60;;;5.97;;
19446;SDS011;9862;49.462;11.054;2024-01-30T02:49:40;13.50;;;5.80;;
19446;SDS011;9862;49.462;11.054;2024-01-30T02:52:07;10.32;;;5.95;;
19446;SDS011;9862;49.462;11.054;2024-01-30T02:54:34;12.57;;;5.80;;
19446;SDS011;9862;49.462;11.054;2024-01-30T02:57:02;9.63;;;5.85;;
19446;SDS011;9862;49.462;11.054;2024-01-30T02:59:28;9.30;;;5.38;;
19446;SDS011;9862;49.462;11.054;2024-01-30T03:01:58;11.63;;;5.70;;
19446;SDS011;9862;49.462;11.054;2024-01-30T03:04:25;12.63;;;5.65;;
19446;SDS011;9862;49.462;11.054;2024-01-30T03:06:52;11.23;;;6.03;;
19446;SDS011;9862;49.462;11.054;2024-01-30T03:09:19;9.02;;;5.60;;
19446;SDS011;9862;49.462;11.054;2024-01-30T03:11:46;11.43;;;5.90;;
19446;SDS011;9862;49.462;11.054;2024-01-30T03:14:16;9.30;;;5.80;;
19446;SDS011;9862;49.462;11.054;2024-01-30T03:16:43;10.90;;;5.85;;
19446;SDS011;9862;49.462;11.054;2024-01-30T03:19:22;11.68;;;5.43;;
19446;SDS011;9862;49.462;11.054;2024-01-30T03:21:49;9.63;;;5.53;;
19446;SDS011;9862;49.462;11.054;2024-01-30T03:24:16;8.43;;;5.93;;
19446;SDS011;9862;49.462;11.054;2024-01-30T03:26:44;10.93;;;5.65;;
19446;SDS011;9862;49.462;11.054;2024-01-30T03:29:11;11.57;;;6.82;;
19446;SDS011;9862;49.462;11.054;2024-01-30T03:31:43;7.55;;;5.28;;
19446;SDS011;9862;49.462;11.054;2024-01-30T03:34:10;10.50;;;6.00;;
19446;SDS011;9862;49.462;11.054;2024-01-30T03:36:37;8.57;;;5.32;;
19446;SDS011;9862;49.462;11.054;2024-01-30T03:39:04;7.88;;;5.18;;
19446;SDS011;9862;49.462;11.054;2024-01-30T03:41:31;11.27;;;6.00;;
19446;SDS011;9862;49.462;11.054;2024-01-30T03:43:58;8.90;;;5.53;;
19446;SDS011;9862;49.462;11.054;2024-01-30T03:46:26;9.18;;;5.35;;
19446;SDS011;9862;49.462;11.054;2024-01-30T03:48:53;7.32;;;5.35;;
19446;SDS011;9862;49.462;11.054;2024-01-30T03:51:19;8.63;;;5.55;;
19446;SDS011;9862;49.462;11.054;2024-01-30T03:53:46;7.30;;;5.10;;
19446;SDS011;9862;49.462;11.054;2024-01-30T03:56:13;9.23;;;5.30;;
19446;SDS011;9862;49.462;11.054;2024-01-30T03:58:39;7.57;;;5.30;;
19446;SDS011;9862;49.462;11.054;2024-01-30T04:01:06;12.15;;;6.07;;
19446;SDS011;9862;49.462;11.054;2024-01-30T04:03:34;7.20;;;5.22;;
19446;SDS011;9862;49.462;11.054;2024-01-30T04:06:01;12.40;;;6.07;;
19446;SDS011;9862;49.462;11.054;2024-01-30T04:08:28;10.30;;;5.30;;
19446;SDS011;9862;49.462;11.054;2024-01-30T04:10:55;8.23;;;5.50;;
19446;SDS011;9862;49.462;11.054;2024-01-30T04:13:22;8.77;;;5.53;;
19446;SDS011;9862;49.462;11.054;2024-01-30T04:15:48;10.63;;;6.00;;
19446;SDS011;9862;49.462;11.054;2024-01-30T04:18:15;8.25;;;5.63;;
19446;SDS011;9862;49.462;11.054;2024-01-30T04:20:43;10.50;;;5.82;;
19446;SDS011;9862;49.462;11.054;2024-01-30T04:23:11;11.32;;;5.75;;
19446;SDS011;9862;49.462;11.054;2024-01-30T04:25:37;8.73;;;5.60;;
19446;SDS011;9862;49.462;11.054;2024-01-30T04:28:04;8.45;;;5.35;;
19446;SDS011;9862;49.462;11.054;2024-01-30T04:30:31;9.02;;;5.47;;
19446;SDS011;9862;49.462;11.054;2024-01-30T04:32:58;11.07;;;6.47;;
19446;SDS011;9862;49.462;11.054;2024-01-30T04:35:24;16.77;;;10.07;;
19446;SDS011;9862;49.462;11.054;2024-01-30T04:37:53;16.35;;;9.95;;
19446;SDS011;9862;49.462;11.054;2024-01-30T04:40:19;31.00;;;14.85;;
19446;SDS011;9862;49.462;11.054;2024-01-30T04:42:46;26.50;;;14.38;;
19446;SDS011;9862;49.462;11.054;2024-01-30T04:45:13;29.52;;;15.80;;
19446;SDS011;9862;49.462;11.054;2024-01-30T04:47:40;28.10;;;13.85;;
19446;SDS011;9862;49.462;11.054;2024-01-30T04:50:07;19.02;;;10.25;;
19446;SDS011;9862;49.462;11.054;2024-01-30T04:52:34;23.52;;;12.65;;
19446;SDS011;9862;49.462;11.054;2024-01-30T04:55:02;13.48;;;8.10;;
19446;SDS011;9862;49.462;11.054;2024-01-30T04:57:29;14.07;;;8.48;;
19446;SDS011;9862;49.462;11.054;2024-01-30T04:59:58;19.55;;;11.35;;
19446;SDS011;9862;49.462;11.054;2024-01-30T05:02:25;36.40;;;18.63;;
19446;SDS011;9862;49.462;11.054;2024-01-30T05:04:53;23.23;;;11.32;;
19446;SDS011;9862;49.462;11.054;2024-01-30T05:07:20;11.68;;;7.80;;
19446;SDS011;9862;49.462;11.054;2024-01-30T05:09:46;17.75;;;9.40;;
19446;SDS011;9862;49.462;11.054;2024-01-30T05:12:14;16.45;;;9.88;;
19446;SDS011;9862;49.462;11.054;2024-01-30T05:14:41;16.73;;;10.68;;
19446;SDS011;9862;49.462;11.054;2024-01-30T05:17:08;17.30;;;10.43;;
19446;SDS011;9862;49.462;11.054;2024-01-30T05:19:35;16.17;;;8.00;;
19446;SDS011;9862;49.462;11.054;2024-01-30T05:22:01;12.27;;;8.82;;
19446;SDS011;9862;49.462;11.054;2024-01-30T05:24:28;12.63;;;7.38;;
19446;SDS011;9862;49.462;11.054;2024-01-30T05:26:55;9.65;;;7.00;;
19446;SDS011;9862;49.462;11.054;2024-01-30T05:29:23;18.27;;;9.63;;
19446;SDS011;9862;49.462;11.054;2024-01-30T05:31:50;15.75;;;10.48;;
19446;SDS011;9862;49.462;11.054;2024-01-30T05:34:16;21.80;;;11.15;;
19446;SDS011;9862;49.462;11.054;2024-01-30T05:36:43;14.35;;;7.80;;
19446;SDS011;9862;49.462;11.054;2024-01-30T05:39:10;12.93;;;7.72;;
19446;SDS011;9862;49.462;11.054;2024-01-30T05:41:36;15.75;;;8.43;;
19446;SDS011;9862;49.462;11.054;2024-01-30T05:44:03;11.93;;;6.90;;
19446;SDS011;9862;49.462;11.054;2024-01-30T05:46:31;10.98;;;6.47;;
19446;SDS011;9862;49.462;11.054;2024-01-30T05:48:58;10.60;;;6.32;;
19446;SDS011;9862;49.462;11.054;2024-01-30T05:51:24;12.23;;;6.60;;
19446;SDS011;9862;49.462;11.054;2024-01-30T05:53:51;21.33;;;9.88;;
19446;SDS011;9862;49.462;11.054;2024-01-30T05:56:18;19.70;;;11.02;;
19446;SDS011;9862;49.462;11.054;2024-01-30T05:58:43;88.30;;;39.75;;
19446;SDS011;9862;49.462;11.054;2024-01-30T06:01:10;40.53;;;20.90;;
19446;SDS011;9862;49.462;11.054;2024-01-30T06:03:38;24.92;;;12.52;;
19446;SDS011;9862;49.462;11.054;2024-01-30T06:06:05;22.92;;;10.45;;
19446;SDS011;9862;49.462;11.054;2024-01-30T06:08:32;14.60;;;8.25;;
19446;SDS011;9862;49.462;11.054;2024-01-30T06:10:59;10.90;;;7.47;;
19446;SDS011;9862;49.462;11.054;2024-01-30T06:13:26;18.95;;;10.88;;
19446;SDS011;9862;49.462;11.054;2024-01-30T06:15:52;14.18;;;8.60;;
19446;SDS011;9862;49.462;11.054;2024-01-30T06:18:19;14.07;;;7.20;;
19446;SDS011;9862;49.462;11.054;2024-01-30T06:20:47;11.07;;;7.30;;
19446;SDS011;9862;49.462;11.054;2024-01-30T06:23:14;14.15;;;8.25;;
19446;SDS011;9862;49.462;11.054;2024-01-30T06:25:40;15.43;;;7.80;;
19446;SDS011;9862;49.462;11.054;2024-01-30T06:28:07;12.85;;;7.95;;
19446;SDS011;9862;49.462;11.054;2024-01-30T06:30:34;14.40;;;8.20;;
19446;SDS011;9862;49.462;11.054;2024-01-30T06:33:00;14.40;;;7.55;;
19446;SDS011;9862;49.462;11.054;2024-01-30T06:35:27;16.48;;;8.02;;
19446;SDS011;9862;49.462;11.054;2024-01-30T06:37:55;13.38;;;8.30;;
19446;SDS011;9862;49.462;11.054;2024-01-30T06:40:22;14.65;;;8.43;;
19446;SDS011;9862;49.462;11.054;2024-01-30T06:42:49;17.52;;;8.73;;
19446;SDS011;9862;49.462;11.054;2024-01-30T06:45:16;13.27;;;8.30;;
19446;SDS011;9862;49.462;11.054;2024-01-30T06:47:42;17.92;;;9.55;;
19446;SDS011;9862;49.462;11.054;2024-01-30T06:50:09;12.82;;;8.80;;
19446;SDS011;9862;49.462;11.054;2024-01-30T06:52:36;13.05;;;8.38;;
19446;SDS011;9862;49.462;11.054;2024-01-30T06:55:04;15.25;;;9.25;;
19446;SDS011;9862;49.462;11.054;2024-01-30T06:57:31;13.50;;;8.15;;
19446;SDS011;9862;49.462;11.054;2024-01-30T06:59:58;14.68;;;8.70;;
19446;SDS011;9862;49.462;11.054;2024-01-30T07:02:25;17.02;;;8.57;;
19446;SDS011;9862;49.462;11.054;2024-01-30T07:04:51;14.70;;;7.97;;
19446;SDS011;9862;49.462;11.054;2024-01-30T07:07:18;14.02;;;8.45;;
19446;SDS011;9862;49.462;11.054;2024-01-30T07:09:44;17.23;;;8.43;;
19446;SDS011;9862;49.462;11.054;2024-01-30T07:12:14;14.40;;;9.57;;
19446;SDS011;9862;49.462;11.054;2024-01-30T07:14:40;12.52;;;8.25;;
19446;SDS011;9862;49.462;11.054;2024-01-30T07:17:07;12.38;;;7.55;;
19446;SDS011;9862;49.462;11.054;2024-01-30T07:19:33;11.95;;;7.85;;
19446;SDS011;9862;49.462;11.054;2024-01-30T07:22:00;16.52;;;8.88;;
19446;SDS011;9862;49.462;11.054;2024-01-30T07:24:27;16.08;;;9.10;;
19446;SDS011;9862;49.462;11.054;2024-01-30T07:26:53;13.63;;;8.45;;
19446;SDS011;9862;49.462;11.054;2024-01-30T07:29:21;13.95;;;8.98;;
19446;SDS011;9862;49.462;11.054;2024-01-30T07:31:48;18.88;;;10.32;;
19446;SDS011;9862;49.462;11.054;2024-01-30T07:34:15;14.00;;;8.98;;
19446;SDS011;9862;49.462;11.054;2024-01-30T07:36:41;18.77;;;10.23;;
19446;SDS011;9862;49.462;11.054;2024-01-30T07:39:08;19.15;;;9.82;;
19446;SDS011;9862;49.462;11.054;2024-01-30T07:41:35;15.25;;;9.35;;
19446;SDS011;9862;49.462;11.054;2024-01-30T07:44:02;18.90;;;9.50;;
19446;SDS011;9862;49.462;11.054;2024-01-30T07:46:30;15.40;;;9.13;;
19446;SDS011;9862;49.462;11.054;2024-01-30T07:48:57;14.35;;;9.77;;
19446;SDS011;9862;49.462;11.054;2024-01-30T07:51:23;16.60;;;10.73;;
19446;SDS011;9862;49.462;11.054;2024-01-30T07:53:50;18.50;;;10.32;;
19446;SDS011;9862;49.462;11.054;2024-01-30T07:56:17;14.45;;;9.55;;
19446;SDS011;9862;49.462;11.054;2024-01-30T07:58:43;15.10;;;9.93;;
19446;SDS011;9862;49.462;11.054;2024-01-30T08:01:10;17.80;;;10.85;;
19446;SDS011;9862;49.462;11.054;2024-01-30T08:03:38;19.48;;;10.90;;
19446;SDS011;9862;49.462;11.054;2024-01-30T08:06:06;23.98;;;12.15;;
19446;SDS011;9862;49.462;11.054;2024-01-30T08:08:33;17.70;;;11.48;;
19446;SDS011;9862;49.462;11.054;2024-01-30T08:11:00;19.90;;;10.48;;
19446;SDS011;9862;49.462;11.054;2024-01-30T08:13:27;20.50;;;11.07;;
19446;SDS011;9862;49.462;11.054;2024-01-30T08:15:53;17.60;;;11.48;;
19446;SDS011;9862;49.462;11.054;2024-01-30T08:18:20;20.75;;;11.70;;
19446;SDS011;9862;49.462;11.054;2024-01-30T08:20:48;21.23;;;10.57;;
19446;SDS011;9862;49.462;11.054;2024-01-30T08:23:15;21.10;;;11.68;;
19446;SDS011;9862;49.462;11.054;2024-01-30T08:25:41;20.70;;;12.32;;
19446;SDS011;9862;49.462;11.054;2024-01-30T08:28:08;19.92;;;12.23;;
19446;SDS011;9862;49.462;11.054;2024-01-30T08:30:35;19.27;;;11.50;;
19446;SDS011;9862;49.462;11.054;2024-01-30T08:33:01;21.80;;;11.00;;
19446;SDS011;9862;49.462;11.054;2024-01-30T08:35:28;21.65;;;12.27;;
19446;SDS011;9862;49.462;11.054;2024-01-30T08:37:59;18.08;;;11.43;;
19446;SDS011;9862;49.462;11.054;2024-01-30T08:40:26;20.23;;;12.32;;
19446;SDS011;9862;49.462;11.054;2024-01-30T08:42:53;17.02;;;10.73;;
19446;SDS011;9862;49.462;11.054;2024-01-30T08:45:20;21.40;;;11.65;;
19446;SDS011;9862;49.462;11.054;2024-01-30T08:47:47;19.75;;;11.52;;
19446;SDS011;9862;49.462;11.054;2024-01-30T08:50:14;19.02;;;12.00;;
19446;SDS011;9862;49.462;11.054;2024-01-30T08:52:40;18.25;;;11.90;;
19446;SDS011;9862;49.462;11.054;2024-01-30T08:55:09;19.27;;;11.80;;
19446;SDS011;9862;49.462;11.054;2024-01-30T08:57:35;17.98;;;10.10;;
19446;SDS011;9862;49.462;11.054;2024-01-30T09:00:02;19.77;;;12.15;;
19446;SDS011;9862;49.462;11.054;2024-01-30T09:02:31;17.60;;;10.88;;
19446;SDS011;9862;49.462;11.054;2024-01-30T09:04:58;22.05;;;12.15;;
19446;SDS011;9862;49.462;11.054;2024-01-30T09:07:25;22.42;;;11.75;;
19446;SDS011;9862;49.462;11.054;2024-01-30T09:09:51;21.38;;;12.57;;
19446;SDS011;9862;49.462;11.054;2024-01-30T09:12:19;19.95;;;11.82;;
19446;SDS011;9862;49.462;11.054;2024-01-30T09:14:46;19.15;;;11.45;;
19446;SDS011;9862;49.462;11.054;2024-01-30T09:17:13;19.45;;;11.35;;
19446;SDS011;9862;49.462;11.054;2024-01-30T09:19:40;19.98;;;12.60;;
19446;SDS011;9862;49.462;11.054;2024-01-30T09:22:06;21.55;;;11.82;;
19446;SDS011;9862;49.462;11.054;2024-01-30T09:24:33;20.00;;;12.88;;
19446;SDS011;9862;49.462;11.054;2024-01-30T09:27:00;20.88;;;11.93;;
19446;SDS011;9862;49.462;11.054;2024-01-30T09:29:28;19.17;;;13.00;;
19446;SDS011;9862;49.462;11.054;2024-01-30T09:31:54;21.80;;;13.05;;
19446;SDS011;9862;49.462;11.054;2024-01-30T09:34:21;19.95;;;11.65;;
19446;SDS011;9862;49.462;11.054;2024-01-30T09:36:48;20.42;;;12.18;;
19446;SDS011;9862;49.462;11.054;2024-01-30T09:39:14;21.88;;;12.50;;
19446;SDS011;9862;49.462;11.054;2024-01-30T09:41:46;19.45;;;13.00;;
19446;SDS011;9862;49.462;11.054;2024-01-30T09:44:15;19.80;;;12.38;;
19446;SDS011;9862;49.462;11.054;2024-01-30T09:46:43;19.02;;;12.00;;
19446;SDS011;9862;49.462;11.054;2024-01-30T09:49:13;17.33;;;11.32;;
19446;SDS011;9862;49.462;11.054;2024-01-30T09:51:40;19.45;;;12.43;;
19446;SDS011;9862;49.462;11.054;2024-01-30T09:54:07;19.42;;;12.20;;
19446;SDS011;9862;49.462;11.054;2024-01-30T09:56:34;17.52;;;11.20;;
19446;SDS011;9862;49.462;11.054;2024-01-30T09:59:01;19.15;;;11.70;;
19446;SDS011;9862;49.462;11.054;2024-01-30T10:01:28;24.35;;;13.07;;
19446;SDS011;9862;49.462;11.054;2024-01-30T10:03:56;19.45;;;11.88;;
19446;SDS011;9862;49.462;11.054;2024-01-30T10:06:22;17.90;;;12.23;;
19446;SDS011;9862;49.462;11.054;2024-01-30T10:08:51;18.17;;;11.52;;
19446;SDS011;9862;49.462;11.054;2024-01-30T10:11:17;20.23;;;12.45;;
19446;SDS011;9862;49.462;11.054;2024-01-30T10:13:44;19.02;;;11.82;;
19446;SDS011;9862;49.462;11.054;2024-01-30T10:16:13;21.55;;;12.25;;
19446;SDS011;9862;49.462;11.054;2024-01-30T10:18:40;18.83;;;11.48;;
19446;SDS011;9862;49.462;11.054;2024-01-30T10:21:09;19.67;;;11.70;;
19446;SDS011;9862;49.462;11.054;2024-01-30T10:23:35;18.70;;;11.52;;
19446;SDS011;9862;49.462;11.054;2024-01-30T10:26:02;21.33;;;12.68;;
19446;SDS011;9862;49.462;11.054;2024-01-30T10:28:30;19.15;;;12.20;;
19446;SDS011;9862;49.462;11.054;2024-01-30T10:30:59;18.80;;;11.68;;
19446;SDS011;9862;49.462;11.054;2024-01-30T10:33:26;17.85;;;11.75;;
19446;SDS011;9862;49.462;11.054;2024-01-30T10:35:54;18.65;;;11.65;;
19446;SDS011;9862;49.462;11.054;2024-01-30T10:38:28;21.02;;;11.60;;
19446;SDS011;9862;49.462;11.054;2024-01-30T10:40:56;20.52;;;11.30;;
19446;SDS011;9862;49.462;11.054;2024-01-30T10:43:24;18.02;;;12.15;;
19446;SDS011;9862;49.462;11.054;2024-01-30T10:45:59;21.15;;;12.43;;
19446;SDS011;9862;49.462;11.054;2024-01-30T10:48:33;15.63;;;10.27;;
19446;SDS011;9862;49.462;11.054;2024-01-30T10:51:08;20.48;;;11.82;;
19446;SDS011;9862;49.462;11.054;2024-01-30T10:53:37;18.88;;;11.32;;
19446;SDS011;9862;49.462;11.054;2024-01-30T10:56:05;15.82;;;10.95;;
19446;SDS011;9862;49.462;11.054;2024-01-30T10:58:33;22.40;;;12.13;;
19446;SDS011;9862;49.462;11.054;2024-01-30T11:00:59;16.48;;;11.35;;
19446;SDS011;9862;49.462;11.054;2024-01-30T11:03:26;19.25;;;11.13;;
19446;SDS011;9862;49.462;11.054;2024-01-30T11:05:53;22.50;;;12.75;;
19446;SDS011;9862;49.462;11.054;2024-01-30T11:08:23;22.02;;;12.38;;
19446;SDS011;9862;49.462;11.054;2024-01-30T11:10:55;19.02;;;12.60;;
19446;SDS011;9862;49.462;11.054;2024-01-30T11:13:22;15.35;;;11.77;;
19446;SDS011;9862;49.462;11.054;2024-01-30T11:15:53;16.42;;;11.48;;
19446;SDS011;9862;49.462;11.054;2024-01-30T11:18:23;24.70;;;12.30;;
19446;SDS011;9862;49.462;11.054;2024-01-30T11:20:50;23.17;;;12.48;;
19446;SDS011;9862;49.462;11.054;2024-01-30T11:23:17;17.33;;;11.27;;
19446;SDS011;9862;49.462;11.054;2024-01-30T11:25:44;16.17;;;11.32;;
19446;SDS011;9862;49.462;11.054;2024-01-30T11:28:14;17.60;;;11.85;;
19446;SDS011;9862;49.462;11.054;2024-01-30T11:30:41;19.70;;;10.80;;
19446;SDS011;9862;49.462;11.054;2024-01-30T11:33:09;18.42;;;10.90;;
19446;SDS011;9862;49.462;11.054;2024-01-30T11:35:37;18.65;;;11.15;;
19446;SDS011;9862;49.462;11.054;2024-01-30T11:38:05;16.80;;;10.77;;
19446;SDS011;9862;49.462;11.054;2024-01-30T11:40:34;20.63;;;10.98;;
19446;SDS011;9862;49.462;11.054;2024-01-30T11:43:01;16.67;;;10.85;;
19446;SDS011;9862;49.462;11.054;2024-01-30T11:45:31;20.23;;;11.27;;
19446;SDS011;9862;49.462;11.054;2024-01-30T11:47:58;16.15;;;10.55;;
19446;SDS011;9862;49.462;11.054;2024-01-30T11:50:28;18.92;;;11.68;;
19446;SDS011;9862;49.462;11.054;2024-01-30T11:52:55;18.45;;;10.65;;
19446;SDS011;9862;49.462;11.054;2024-01-30T11:55:23;15.98;;;10.77;;
19446;SDS011;9862;49.462;11.054;2024-01-30T11:57:50;18.42;;;11.32;;
19446;SDS011;9862;49.462;11.054;2024-01-30T12:00:17;17.73;;;11.55;;
19446;SDS011;9862;49.462;11.054;2024-01-30T12:02:50;15.13;;;10.68;;
19446;SDS011;9862;49.462;11.054;2024-01-30T12:05:20;17.83;;;10.98;;
19446;SDS011;9862;49.462;11.054;2024-01-30T12:07:47;16.65;;;10.57;;
19446;SDS011;9862;49.462;11.054;2024-01-30T12:10:14;19.38;;;10.52;;
19446;SDS011;9862;49.462;11.054;2024-01-30T12:12:43;17.75;;;10.65;;
19446;SDS011;9862;49.462;11.054;2024-01-30T12:15:12;18.90;;;11.90;;
19446;SDS011;9862;49.462;11.054;2024-01-30T12:17:39;17.90;;;10.18;;
19446;SDS011;9862;49.462;11.054;2024-01-30T12:20:09;18.98;;;11.60;;
19446;SDS011;9862;49.462;11.054;2024-01-30T12:22:37;17.67;;;10.50;;
19446;SDS011;9862;49.462;11.054;2024-01-30T12:25:05;16.75;;;11.10;;
19446;SDS011;9862;49.462;11.054;2024-01-30T12:27:34;19.77;;;10.98;;
19446;SDS011;9862;49.462;11.054;2024-01-30T12:30:01;19.98;;;10.43;;
19446;SDS011;9862;49.462;11.054;2024-01-30T12:32:27;13.90;;;10.00;;
19446;SDS011;9862;49.462;11.054;2024-01-30T12:34:54;13.98;;;10.18;;
19446;SDS011;9862;49.462;11.054;2024-01-30T12:37:24;16.25;;;10.40;;
19446;SDS011;9862;49.462;11.054;2024-01-30T12:39:51;16.77;;;11.25;;
19446;SDS011;9862;49.462;11.054;2024-01-30T12:42:19;13.77;;;9.77;;
19446;SDS011;9862;49.462;11.054;2024-01-30T12:44:46;14.40;;;10.45;;
19446;SDS011;9862;49.462;11.054;2024-01-30T12:47:13;18.13;;;10.75;;
19446;SDS011;9862;49.462;11.054;2024-01-30T12:49:41;15.10;;;9.32;;
19446;SDS011;9862;49.462;11.054;2024-01-30T12:52:08;16.65;;;9.55;;
19446;SDS011;9862;49.462;11.054;2024-01-30T12:54:36;13.65;;;9.50;;
19446;SDS011;9862;49.462;11.054;2024-01-30T12:57:03;17.10;;;10.23;;
19446;SDS011;9862;49.462;11.054;2024-01-30T12:59:30;16.65;;;10.32;;
19446;SDS011;9862;49.462;11.054;2024-01-30T13:01:58;15.02;;;9.95;;
19446;SDS011;9862;49.462;11.054;2024-01-30T13:04:26;17.85;;;10.30;;
19446;SDS011;9862;49.462;11.054;2024-01-30T13:06:53;14.07;;;9.63;;
19446;SDS011;9862;49.462;11.054;2024-01-30T13:09:20;15.18;;;9.57;;
19446;SDS011;9862;49.462;11.054;2024-01-30T13:11:48;13.68;;;9.82;;
19446;SDS011;9862;49.462;11.054;2024-01-30T13:14:16;14.55;;;9.40;;
19446;SDS011;9862;49.462;11.054;2024-01-30T13:16:43;19.40;;;11.75;;
19446;SDS011;9862;49.462;11.054;2024-01-30T13:19:09;18.10;;;10.38;;
19446;SDS011;9862;49.462;11.054;2024-01-30T13:21:36;15.75;;;9.68;;
19446;SDS011;9862;49.462;11.054;2024-01-30T13:24:03;14.80;;;9.48;;
19446;SDS011;9862;49.462;11.054;2024-01-30T13:26:31;15.93;;;9.75;;
19446;SDS011;9862;49.462;11.054;2024-01-30T13:28:59;14.98;;;9.02;;
19446;SDS011;9862;49.462;11.054;2024-01-30T13:31:26;16.85;;;10.18;;
19446;SDS011;9862;49.462;11.054;2024-01-30T13:33:53;20.67;;;11.00;;
19446;SDS011;9862;49.462;11.054;2024-01-30T13:36:20;15.07;;;9.75;;
19446;SDS011;9862;49.462;11.054;2024-01-30T13:38:47;14.77;;;9.88;;
19446;SDS011;9862;49.462;11.054;2024-01-30T13:41:14;16.88;;;10.07;;
19446;SDS011;9862;49.462;11.054;2024-01-30T13:43:43;19.33;;;10.32;;
19446;SDS011;9862;49.462;11.054;2024-01-30T13:46:11;18.48;;;10.55;;
19446;SDS011;9862;49.462;11.054;2024-01-30T13:48:37;16.00;;;10.20;;
19446;SDS011;9862;49.462;11.054;2024-01-30T13:51:04;14.65;;;9.75;;
19446;SDS011;9862;49.462;11.054;2024-01-30T13:53:31;15.90;;;9.95;;
19446;SDS011;9862;49.462;11.054;2024-01-30T13:55:58;15.23;;;10.05;;
19446;SDS011;9862;49.462;11.054;2024-01-30T13:58:24;18.27;;;10.10;;
19446;SDS011;9862;49.462;11.054;2024-01-30T14:00:52;17.00;;;10.40;;
19446;SDS011;9862;49.462;11.054;2024-01-30T14:03:20;20.63;;;12.65;;
19446;SDS011;9862;49.462;11.054;2024-01-30T14:05:46;18.55;;;11.45;;
19446;SDS011;9862;49.462;11.054;2024-01-30T14:08:13;21.90;;;13.07;;
19446;SDS011;9862;49.462;11.054;2024-01-30T14:10:41;20.17;;;12.05;;
19446;SDS011;9862;49.462;11.054;2024-01-30T14:13:08;20.88;;;11.57;;
19446;SDS011;9862;49.462;11.054;2024-01-30T14:15:36;17.83;;;11.15;;
19446;SDS011;9862;49.462;11.054;2024-01-30T14:18:03;20.02;;;11.57;;
19446;SDS011;9862;49.462;11.054;2024-01-30T14:20:31;20.27;;;11.43;;
19446;SDS011;9862;49.462;11.054;2024-01-30T14:22:58;19.95;;;11.18;;
19446;SDS011;9862;49.462;11.054;2024-01-30T14:25:25;14.48;;;10.23;;
19446;SDS011;9862;49.462;11.054;2024-01-30T14:27:51;21.10;;;11.43;;
19446;SDS011;9862;49.462;11.054;2024-01-30T14:30:18;18.58;;;11.77;;